sensor_id;sensor_type;location;lat;lon;timestamp;P1;durP1;ratioP1;P2;durP2;ratioP2
37905;SDS011;23739;51.448;6.674;2023-12-14T00:02:24;22.10;;;13.63;;
37905;SDS011;23739;51.448;6.674;2023-12-14T00:04:50;26.60;;;14.43;;
37905;SDS011;23739;51.448;6.674;2023-12-14T00:07:25;23.05;;;13.85;;
37905;SDS011;23739;51.448;6.674;2023-12-14T00:10:06;21.08;;;13.00;;
37905;SDS011;23739;51.448;6.674;2023-12-14T00:12:36;25.67;;;14.52;;
37905;SDS011;23739;51.448;6.674;2023-12-14T00:15:11;18.92;;;12.40;;
37905;SDS011;23739;51.448;6.674;2023-12-14T00:17:43;22.58;;;12.82;;
37905;SDS011;23739;51.448;6.674;2023-12-14T00:20:10;20.63;;;11.77;;
37905;SDS011;23739;51.448;6.674;2023-12-14T00:22:39;23.90;;;13.10;;
37905;SDS011;23739;51.448;6.674;2023-12-14T00:25:08;23.77;;;13.05;;
37905;SDS011;23739;51.448;6.674;2023-12-14T00:27:40;21.60;;;12.88;;
37905;SDS011;23739;51.448;6.674;2023-12-14T00:30:07;21.40;;;13.73;;
37905;SDS011;23739;51.448;6.674;2023-12-14T00:32:36;21.42;;;13.32;;
37905;SDS011;23739;51.448;6.674;2023-12-14T00:35:05;27.30;;;15.30;;
37905;SDS011;23739;51.448;6.674;2023-12-14T00:37:40;22.40;;;13.32;;
37905;SDS011;23739;51.448;6.674;2023-12-14T00:40:15;20.00;;;12.75;;
37905;SDS011;23739;51.448;6.674;2023-12-14T00:42:41;24.02;;;13.73;;
37905;SDS011;23739;51.448;6.674;2023-12-14T00:45:07;20.70;;;12.35;;
37905;SDS011;23739;51.448;6.674;2023-12-14T00:47:46;21.75;;;13.27;;
37905;SDS011;23739;51.448;6.674;2023-12-14T00:50:15;19.70;;;12.50;;
37905;SDS011;23739;51.448;6.674;2023-12-14T00:52:53;18.45;;;11.77;;
37905;SDS011;23739;51.448;6.674;2023-12-14T00:55:37;20.83;;;13.52;;
37905;SDS011;23739;51.448;6.674;2023-12-14T00:58:22;21.67;;;13.73;;
37905;SDS011;23739;51.448;6.674;2023-12-14T01:00:49;21.55;;;12.95;;
37905;SDS011;23739;51.448;6.674;2023-12-14T01:03:15;23.23;;;14.05;;
37905;SDS011;23739;51.448;6.674;2023-12-14T01:05:44;22.00;;;13.63;;
37905;SDS011;23739;51.448;6.674;2023-12-14T01:08:10;22.27;;;12.45;;
37905;SDS011;23739;51.448;6.674;2023-12-14T01:10:36;20.23;;;12.35;;
37905;SDS011;23739;51.448;6.674;2023-12-14T01:13:07;17.25;;;12.10;;
37905;SDS011;23739;51.448;6.674;2023-12-14T01:15:33;18.77;;;11.95;;
37905;SDS011;23739;51.448;6.674;2023-12-14T01:18:02;19.30;;;12.85;;
37905;SDS011;23739;51.448;6.674;2023-12-14T01:20:29;19.73;;;11.80;;
37905;SDS011;23739;51.448;6.674;2023-12-14T01:23:04;23.52;;;13.68;;
37905;SDS011;23739;51.448;6.674;2023-12-14T01:25:36;23.17;;;14.18;;
37905;SDS011;23739;51.448;6.674;2023-12-14T01:28:09;22.65;;;13.82;;
37905;SDS011;23739;51.448;6.674;2023-12-14T01:30:34;20.48;;;13.63;;
37905;SDS011;23739;51.448;6.674;2023-12-14T01:33:12;20.65;;;12.60;;
37905;SDS011;23739;51.448;6.674;2023-12-14T01:35:42;23.15;;;14.23;;
37905;SDS011;23739;51.448;6.674;2023-12-14T01:38:17;23.25;;;12.90;;
37905;SDS011;23739;51.448;6.674;2023-12-14T01:40:58;27.70;;;15.77;;
37905;SDS011;23739;51.448;6.674;2023-12-14T01:45:59;26.77;;;16.17;;
37905;SDS011;23739;51.448;6.674;2023-12-14T01:48:37;30.48;;;17.42;;
37905;SDS011;23739;51.448;6.674;2023-12-14T01:51:06;25.02;;;15.95;;
37905;SDS011;23739;51.448;6.674;2023-12-14T01:53:38;30.60;;;17.15;;
37905;SDS011;23739;51.448;6.674;2023-12-14T01:56:16;28.33;;;17.88;;
37905;SDS011;23739;51.448;6.674;2023-12-14T01:58:48;25.77;;;16.60;;
37905;SDS011;23739;51.448;6.674;2023-12-14T02:01:22;29.83;;;16.83;;
37905;SDS011;23739;51.448;6.674;2023-12-14T02:03:50;31.80;;;18.92;;
37905;SDS011;23739;51.448;6.674;2023-12-14T02:06:28;29.98;;;16.65;;
37905;SDS011;23739;51.448;6.674;2023-12-14T02:09:12;32.22;;;18.73;;
37905;SDS011;23739;51.448;6.674;2023-12-14T02:11:41;31.95;;;19.05;;
37905;SDS011;23739;51.448;6.674;2023-12-14T02:14:10;34.08;;;18.48;;
37905;SDS011;23739;51.448;6.674;2023-12-14T02:16:54;35.13;;;19.98;;
37905;SDS011;23739;51.448;6.674;2023-12-14T02:19:29;36.13;;;18.58;;
37905;SDS011;23739;51.448;6.674;2023-12-14T02:21:58;32.95;;;18.58;;
37905;SDS011;23739;51.448;6.674;2023-12-14T02:24:29;33.97;;;19.17;;
37905;SDS011;23739;51.448;6.674;2023-12-14T02:26:56;28.67;;;17.88;;
37905;SDS011;23739;51.448;6.674;2023-12-14T02:29:22;25.30;;;16.20;;
37905;SDS011;23739;51.448;6.674;2023-12-14T02:31:51;24.90;;;15.05;;
37905;SDS011;23739;51.448;6.674;2023-12-14T02:34:17;26.30;;;15.45;;
37905;SDS011;23739;51.448;6.674;2023-12-14T02:36:45;24.05;;;14.80;;
37905;SDS011;23739;51.448;6.674;2023-12-14T02:39:24;25.63;;;14.48;;
37905;SDS011;23739;51.448;6.674;2023-12-14T02:42:01;25.15;;;15.70;;
37905;SDS011;23739;51.448;6.674;2023-12-14T02:44:34;22.80;;;14.27;;
37905;SDS011;23739;51.448;6.674;2023-12-14T02:47:15;26.25;;;15.57;;
37905;SDS011;23739;51.448;6.674;2023-12-14T02:52:25;24.42;;;14.38;;
37905;SDS011;23739;51.448;6.674;2023-12-14T02:54:54;28.45;;;15.85;;
37905;SDS011;23739;51.448;6.674;2023-12-14T02:57:23;22.48;;;14.02;;
37905;SDS011;23739;51.448;6.674;2023-12-14T02:59:55;27.60;;;16.27;;
37905;SDS011;23739;51.448;6.674;2023-12-14T03:02:30;30.83;;;18.08;;
37905;SDS011;23739;51.448;6.674;2023-12-14T03:05:08;25.05;;;14.25;;
37905;SDS011;23739;51.448;6.674;2023-12-14T03:07:39;30.63;;;17.08;;
37905;SDS011;23739;51.448;6.674;2023-12-14T03:10:09;25.35;;;15.32;;
37905;SDS011;23739;51.448;6.674;2023-12-14T03:12:38;31.58;;;18.15;;
37905;SDS011;23739;51.448;6.674;2023-12-14T03:17:41;35.47;;;17.85;;
37905;SDS011;23739;51.448;6.674;2023-12-14T03:20:22;31.30;;;18.38;;
37905;SDS011;23739;51.448;6.674;2023-12-14T03:22:57;37.05;;;16.25;;
37905;SDS011;23739;51.448;6.674;2023-12-14T03:28:22;30.33;;;16.83;;
37905;SDS011;23739;51.448;6.674;2023-12-14T03:30:51;33.00;;;17.73;;
37905;SDS011;23739;51.448;6.674;2023-12-14T03:33:20;33.72;;;18.33;;
37905;SDS011;23739;51.448;6.674;2023-12-14T03:35:47;30.65;;;17.50;;
37905;SDS011;23739;51.448;6.674;2023-12-14T03:38:22;40.55;;;18.48;;
37905;SDS011;23739;51.448;6.674;2023-12-14T03:40:54;30.88;;;17.30;;
37905;SDS011;23739;51.448;6.674;2023-12-14T03:43:26;34.90;;;17.80;;
37905;SDS011;23739;51.448;6.674;2023-12-14T03:46:03;35.83;;;17.30;;
37905;SDS011;23739;51.448;6.674;2023-12-14T03:48:33;36.58;;;18.92;;
37905;SDS011;23739;51.448;6.674;2023-12-14T03:51:05;33.13;;;19.60;;
37905;SDS011;23739;51.448;6.674;2023-12-14T03:53:43;33.72;;;18.77;;
37905;SDS011;23739;51.448;6.674;2023-12-14T03:56:15;34.42;;;19.85;;
37905;SDS011;23739;51.448;6.674;2023-12-14T03:58:41;33.65;;;18.13;;
37905;SDS011;23739;51.448;6.674;2023-12-14T04:01:07;32.50;;;18.13;;
37905;SDS011;23739;51.448;6.674;2023-12-14T04:03:33;34.40;;;18.83;;
37905;SDS011;23739;51.448;6.674;2023-12-14T04:08:51;30.60;;;17.75;;
37905;SDS011;23739;51.448;6.674;2023-12-14T04:11:17;35.92;;;19.08;;
37905;SDS011;23739;51.448;6.674;2023-12-14T04:13:49;36.92;;;19.38;;
37905;SDS011;23739;51.448;6.674;2023-12-14T04:16:21;34.70;;;19.60;;
37905;SDS011;23739;51.448;6.674;2023-12-14T04:18:59;36.60;;;19.83;;
37905;SDS011;23739;51.448;6.674;2023-12-14T04:21:29;36.47;;;18.83;;
37905;SDS011;23739;51.448;6.674;2023-12-14T04:23:55;36.85;;;18.45;;
37905;SDS011;23739;51.448;6.674;2023-12-14T04:26:27;38.10;;;18.08;;
37905;SDS011;23739;51.448;6.674;2023-12-14T04:28:53;36.35;;;19.27;;
37905;SDS011;23739;51.448;6.674;2023-12-14T04:31:22;33.78;;;19.08;;
37905;SDS011;23739;51.448;6.674;2023-12-14T04:36:26;37.42;;;20.17;;
37905;SDS011;23739;51.448;6.674;2023-12-14T04:38:55;44.83;;;22.73;;
37905;SDS011;23739;51.448;6.674;2023-12-14T04:41:21;37.17;;;19.00;;
37905;SDS011;23739;51.448;6.674;2023-12-14T04:46:22;38.88;;;18.60;;
37905;SDS011;23739;51.448;6.674;2023-12-14T04:48:53;35.83;;;18.38;;
37905;SDS011;23739;51.448;6.674;2023-12-14T04:51:22;36.95;;;19.40;;
37905;SDS011;23739;51.448;6.674;2023-12-14T04:53:48;32.72;;;19.25;;
37905;SDS011;23739;51.448;6.674;2023-12-14T04:56:18;32.40;;;17.63;;
37905;SDS011;23739;51.448;6.674;2023-12-14T04:58:53;34.25;;;18.23;;
37905;SDS011;23739;51.448;6.674;2023-12-14T05:01:19;36.05;;;18.75;;
37905;SDS011;23739;51.448;6.674;2023-12-14T05:03:48;35.53;;;18.15;;
37905;SDS011;23739;51.448;6.674;2023-12-14T05:06:17;30.45;;;17.73;;
37905;SDS011;23739;51.448;6.674;2023-12-14T05:08:46;33.47;;;17.45;;
37905;SDS011;23739;51.448;6.674;2023-12-14T05:11:12;33.60;;;18.42;;
37905;SDS011;23739;51.448;6.674;2023-12-14T05:13:50;35.30;;;19.27;;
37905;SDS011;23739;51.448;6.674;2023-12-14T05:16:16;33.95;;;18.05;;
37905;SDS011;23739;51.448;6.674;2023-12-14T05:18:51;31.42;;;16.77;;
37905;SDS011;23739;51.448;6.674;2023-12-14T05:21:22;34.22;;;18.05;;
37905;SDS011;23739;51.448;6.674;2023-12-14T05:23:54;34.58;;;18.17;;
37905;SDS011;23739;51.448;6.674;2023-12-14T05:28:46;39.38;;;19.63;;
37905;SDS011;23739;51.448;6.674;2023-12-14T05:31:15;39.15;;;19.42;;
37905;SDS011;23739;51.448;6.674;2023-12-14T05:33:44;40.95;;;20.60;;
37905;SDS011;23739;51.448;6.674;2023-12-14T05:36:10;43.60;;;22.08;;
37905;SDS011;23739;51.448;6.674;2023-12-14T05:38:38;39.50;;;20.27;;
37905;SDS011;23739;51.448;6.674;2023-12-14T05:41:04;39.63;;;22.63;;
37905;SDS011;23739;51.448;6.674;2023-12-14T05:43:30;43.35;;;21.38;;
37905;SDS011;23739;51.448;6.674;2023-12-14T05:46:02;41.13;;;21.33;;
37905;SDS011;23739;51.448;6.674;2023-12-14T05:48:34;47.47;;;23.45;;
37905;SDS011;23739;51.448;6.674;2023-12-14T05:51:01;45.95;;;22.60;;
37905;SDS011;23739;51.448;6.674;2023-12-14T05:53:36;50.45;;;23.25;;
37905;SDS011;23739;51.448;6.674;2023-12-14T05:56:04;35.97;;;18.80;;
37905;SDS011;23739;51.448;6.674;2023-12-14T05:58:34;43.85;;;22.20;;
37905;SDS011;23739;51.448;6.674;2023-12-14T06:01:03;45.72;;;22.63;;
37905;SDS011;23739;51.448;6.674;2023-12-14T06:03:32;45.38;;;22.52;;
37905;SDS011;23739;51.448;6.674;2023-12-14T06:06:01;43.42;;;21.65;;
37905;SDS011;23739;51.448;6.674;2023-12-14T06:08:27;43.70;;;22.65;;
37905;SDS011;23739;51.448;6.674;2023-12-14T06:13:32;45.33;;;22.42;;
37905;SDS011;23739;51.448;6.674;2023-12-14T06:16:05;42.53;;;23.20;;
37905;SDS011;23739;51.448;6.674;2023-12-14T06:18:55;42.47;;;21.92;;
37905;SDS011;23739;51.448;6.674;2023-12-14T06:21:21;42.50;;;21.88;;
37905;SDS011;23739;51.448;6.674;2023-12-14T06:23:59;42.45;;;21.83;;
37905;SDS011;23739;51.448;6.674;2023-12-14T06:26:28;44.33;;;22.98;;
37905;SDS011;23739;51.448;6.674;2023-12-14T06:28:57;50.20;;;22.98;;
37905;SDS011;23739;51.448;6.674;2023-12-14T06:31:27;43.72;;;21.75;;
37905;SDS011;23739;51.448;6.674;2023-12-14T06:33:55;46.33;;;24.10;;
37905;SDS011;23739;51.448;6.674;2023-12-14T06:36:34;44.00;;;24.02;;
37905;SDS011;23739;51.448;6.674;2023-12-14T06:39:00;44.65;;;22.45;;
37905;SDS011;23739;51.448;6.674;2023-12-14T06:41:28;42.42;;;22.25;;
37905;SDS011;23739;51.448;6.674;2023-12-14T06:43:57;40.45;;;21.95;;
37905;SDS011;23739;51.448;6.674;2023-12-14T06:46:23;44.10;;;22.40;;
37905;SDS011;23739;51.448;6.674;2023-12-14T06:48:58;41.17;;;22.75;;
37905;SDS011;23739;51.448;6.674;2023-12-14T06:51:24;45.40;;;22.70;;
37905;SDS011;23739;51.448;6.674;2023-12-14T06:53:53;45.75;;;23.70;;
37905;SDS011;23739;51.448;6.674;2023-12-14T06:56:19;41.92;;;21.30;;
37905;SDS011;23739;51.448;6.674;2023-12-14T06:58:45;41.47;;;23.02;;
37905;SDS011;23739;51.448;6.674;2023-12-14T07:01:17;42.28;;;24.42;;
37905;SDS011;23739;51.448;6.674;2023-12-14T07:03:57;44.95;;;23.90;;
37905;SDS011;23739;51.448;6.674;2023-12-14T07:06:28;46.33;;;25.55;;
37905;SDS011;23739;51.448;6.674;2023-12-14T07:09:00;47.05;;;25.73;;
37905;SDS011;23739;51.448;6.674;2023-12-14T07:11:42;46.57;;;25.27;;
37905;SDS011;23739;51.448;6.674;2023-12-14T07:14:20;49.13;;;26.30;;
37905;SDS011;23739;51.448;6.674;2023-12-14T07:16:52;57.92;;;27.52;;
37905;SDS011;23739;51.448;6.674;2023-12-14T07:19:24;46.92;;;27.52;;
37905;SDS011;23739;51.448;6.674;2023-12-14T07:21:59;53.58;;;27.25;;
37905;SDS011;23739;51.448;6.674;2023-12-14T07:24:46;54.20;;;26.30;;
37905;SDS011;23739;51.448;6.674;2023-12-14T07:27:18;60.95;;;27.92;;
37905;SDS011;23739;51.448;6.674;2023-12-14T07:32:10;58.80;;;29.58;;
37905;SDS011;23739;51.448;6.674;2023-12-14T07:34:46;59.55;;;29.92;;
37905;SDS011;23739;51.448;6.674;2023-12-14T07:37:18;57.05;;;28.02;;
37905;SDS011;23739;51.448;6.674;2023-12-14T07:39:47;52.60;;;27.27;;
37905;SDS011;23739;51.448;6.674;2023-12-14T07:42:22;54.83;;;26.75;;
37905;SDS011;23739;51.448;6.674;2023-12-14T07:44:56;55.45;;;29.00;;
37905;SDS011;23739;51.448;6.674;2023-12-14T07:47:25;52.40;;;27.30;;
37905;SDS011;23739;51.448;6.674;2023-12-14T07:52:26;44.35;;;24.60;;
37905;SDS011;23739;51.448;6.674;2023-12-14T07:55:01;43.35;;;23.33;;
37905;SDS011;23739;51.448;6.674;2023-12-14T08:00:31;41.58;;;23.52;;
37905;SDS011;23739;51.448;6.674;2023-12-14T08:03:00;43.75;;;24.27;;
37905;SDS011;23739;51.448;6.674;2023-12-14T08:05:29;40.25;;;23.67;;
37905;SDS011;23739;51.448;6.674;2023-12-14T08:08:01;37.15;;;21.95;;
37905;SDS011;23739;51.448;6.674;2023-12-14T08:10:27;37.90;;;22.73;;
37905;SDS011;23739;51.448;6.674;2023-12-14T08:12:56;41.30;;;23.15;;
37905;SDS011;23739;51.448;6.674;2023-12-14T08:15:21;38.40;;;23.25;;
37905;SDS011;23739;51.448;6.674;2023-12-14T08:17:47;41.53;;;22.65;;
37905;SDS011;23739;51.448;6.674;2023-12-14T08:20:13;36.83;;;23.17;;
37905;SDS011;23739;51.448;6.674;2023-12-14T08:22:58;42.78;;;24.42;;
37905;SDS011;23739;51.448;6.674;2023-12-14T08:25:24;38.67;;;22.58;;
37905;SDS011;23739;51.448;6.674;2023-12-14T08:27:55;41.03;;;22.20;;
37905;SDS011;23739;51.448;6.674;2023-12-14T08:30:25;37.25;;;21.55;;
37905;SDS011;23739;51.448;6.674;2023-12-14T08:32:51;40.75;;;21.63;;
37905;SDS011;23739;51.448;6.674;2023-12-14T08:35:20;40.85;;;21.85;;
37905;SDS011;23739;51.448;6.674;2023-12-14T08:37:46;39.42;;;22.98;;
37905;SDS011;23739;51.448;6.674;2023-12-14T08:40:18;43.85;;;23.38;;
37905;SDS011;23739;51.448;6.674;2023-12-14T08:42:53;36.60;;;21.08;;
37905;SDS011;23739;51.448;6.674;2023-12-14T08:45:23;38.97;;;22.00;;
37905;SDS011;23739;51.448;6.674;2023-12-14T08:47:54;38.85;;;21.42;;
37905;SDS011;23739;51.448;6.674;2023-12-14T08:50:27;35.47;;;18.95;;
37905;SDS011;23739;51.448;6.674;2023-12-14T08:53:01;39.53;;;22.02;;
37905;SDS011;23739;51.448;6.674;2023-12-14T08:55:31;32.95;;;20.58;;
37905;SDS011;23739;51.448;6.674;2023-12-14T08:58:00;34.38;;;20.45;;
37905;SDS011;23739;51.448;6.674;2023-12-14T09:00:29;38.25;;;20.73;;
37905;SDS011;23739;51.448;6.674;2023-12-14T09:03:01;35.80;;;20.80;;
37905;SDS011;23739;51.448;6.674;2023-12-14T09:05:49;31.50;;;19.23;;
37905;SDS011;23739;51.448;6.674;2023-12-14T09:08:18;30.27;;;19.48;;
37905;SDS011;23739;51.448;6.674;2023-12-14T09:10:59;36.17;;;21.30;;
37905;SDS011;23739;51.448;6.674;2023-12-14T09:13:31;30.88;;;19.48;;
37905;SDS011;23739;51.448;6.674;2023-12-14T09:16:00;32.05;;;18.98;;
37905;SDS011;23739;51.448;6.674;2023-12-14T09:18:32;29.85;;;18.73;;
37905;SDS011;23739;51.448;6.674;2023-12-14T09:21:07;30.08;;;17.75;;
37905;SDS011;23739;51.448;6.674;2023-12-14T09:23:33;27.80;;;17.90;;
37905;SDS011;23739;51.448;6.674;2023-12-14T09:25:59;26.98;;;17.33;;
37905;SDS011;23739;51.448;6.674;2023-12-14T09:30:57;27.30;;;16.92;;
37905;SDS011;23739;51.448;6.674;2023-12-14T09:33:23;27.10;;;16.75;;
37905;SDS011;23739;51.448;6.674;2023-12-14T09:35:49;30.30;;;17.52;;
37905;SDS011;23739;51.448;6.674;2023-12-14T09:38:18;25.70;;;16.48;;
37905;SDS011;23739;51.448;6.674;2023-12-14T09:40:47;26.63;;;17.00;;
37905;SDS011;23739;51.448;6.674;2023-12-14T09:43:25;22.75;;;15.85;;
37905;SDS011;23739;51.448;6.674;2023-12-14T09:45:54;25.48;;;16.73;;
37905;SDS011;23739;51.448;6.674;2023-12-14T09:48:23;25.13;;;15.68;;
37905;SDS011;23739;51.448;6.674;2023-12-14T09:50:53;22.23;;;14.88;;
37905;SDS011;23739;51.448;6.674;2023-12-14T09:53:24;21.58;;;15.13;;
37905;SDS011;23739;51.448;6.674;2023-12-14T09:56:00;21.00;;;14.30;;
37905;SDS011;23739;51.448;6.674;2023-12-14T09:58:32;21.30;;;14.63;;
37905;SDS011;23739;51.448;6.674;2023-12-14T10:01:26;21.42;;;14.48;;
37905;SDS011;23739;51.448;6.674;2023-12-14T10:04:06;22.88;;;15.07;;
37905;SDS011;23739;51.448;6.674;2023-12-14T10:06:36;20.58;;;13.30;;
37905;SDS011;23739;51.448;6.674;2023-12-14T10:09:05;20.88;;;14.57;;
37905;SDS011;23739;51.448;6.674;2023-12-14T10:11:43;22.35;;;15.13;;
37905;SDS011;23739;51.448;6.674;2023-12-14T10:14:22;21.02;;;14.98;;
37905;SDS011;23739;51.448;6.674;2023-12-14T10:16:57;23.23;;;14.23;;
37905;SDS011;23739;51.448;6.674;2023-12-14T10:19:26;20.20;;;13.52;;
37905;SDS011;23739;51.448;6.674;2023-12-14T10:21:55;20.65;;;14.15;;
37905;SDS011;23739;51.448;6.674;2023-12-14T10:24:28;22.13;;;13.10;;
37905;SDS011;23739;51.448;6.674;2023-12-14T10:27:06;21.20;;;12.63;;
37905;SDS011;23739;51.448;6.674;2023-12-14T10:29:33;23.15;;;12.77;;
37905;SDS011;23739;51.448;6.674;2023-12-14T10:32:03;21.45;;;12.15;;
37905;SDS011;23739;51.448;6.674;2023-12-14T10:34:40;22.98;;;13.27;;
37905;SDS011;23739;51.448;6.674;2023-12-14T10:37:13;18.02;;;12.10;;
37905;SDS011;23739;51.448;6.674;2023-12-14T10:39:42;22.73;;;12.75;;
37905;SDS011;23739;51.448;6.674;2023-12-14T10:42:11;21.10;;;12.35;;
37905;SDS011;23739;51.448;6.674;2023-12-14T10:44:42;20.65;;;12.23;;
37905;SDS011;23739;51.448;6.674;2023-12-14T10:47:08;20.13;;;11.45;;
37905;SDS011;23739;51.448;6.674;2023-12-14T10:49:35;19.42;;;11.77;;
37905;SDS011;23739;51.448;6.674;2023-12-14T10:52:11;20.98;;;12.75;;
37905;SDS011;23739;51.448;6.674;2023-12-14T10:54:38;22.48;;;12.13;;
37905;SDS011;23739;51.448;6.674;2023-12-14T10:57:16;19.05;;;12.68;;
37905;SDS011;23739;51.448;6.674;2023-12-14T10:59:48;20.77;;;12.65;;
37905;SDS011;23739;51.448;6.674;2023-12-14T11:02:17;23.40;;;11.85;;
37905;SDS011;23739;51.448;6.674;2023-12-14T11:05:00;21.30;;;12.13;;
37905;SDS011;23739;51.448;6.674;2023-12-14T11:10:11;19.53;;;11.23;;
37905;SDS011;23739;51.448;6.674;2023-12-14T11:12:38;21.70;;;12.30;;
37905;SDS011;23739;51.448;6.674;2023-12-14T11:15:18;22.75;;;12.45;;
37905;SDS011;23739;51.448;6.674;2023-12-14T11:23:31;22.35;;;11.52;;
37905;SDS011;23739;51.448;6.674;2023-12-14T11:25:59;18.83;;;10.30;;
37905;SDS011;23739;51.448;6.674;2023-12-14T11:28:39;22.67;;;13.60;;
37905;SDS011;23739;51.448;6.674;2023-12-14T11:31:20;20.20;;;11.95;;
37905;SDS011;23739;51.448;6.674;2023-12-14T11:33:48;16.65;;;11.45;;
37905;SDS011;23739;51.448;6.674;2023-12-14T11:36:33;19.20;;;11.90;;
37905;SDS011;23739;51.448;6.674;2023-12-14T11:39:09;17.48;;;10.10;;
37905;SDS011;23739;51.448;6.674;2023-12-14T11:41:36;17.25;;;10.52;;
37905;SDS011;23739;51.448;6.674;2023-12-14T11:44:09;18.15;;;11.30;;
37905;SDS011;23739;51.448;6.674;2023-12-14T11:46:44;16.70;;;10.57;;
37905;SDS011;23739;51.448;6.674;2023-12-14T11:49:19;17.40;;;8.82;;
37905;SDS011;23739;51.448;6.674;2023-12-14T11:51:50;20.60;;;11.63;;
37905;SDS011;23739;51.448;6.674;2023-12-14T11:54:22;19.60;;;12.60;;
37905;SDS011;23739;51.448;6.674;2023-12-14T11:56:49;17.05;;;11.05;;
37905;SDS011;23739;51.448;6.674;2023-12-14T11:59:24;13.55;;;9.13;;
37905;SDS011;23739;51.448;6.674;2023-12-14T12:04:21;16.48;;;9.32;;
37905;SDS011;23739;51.448;6.674;2023-12-14T12:07:03;16.25;;;9.95;;
37905;SDS011;23739;51.448;6.674;2023-12-14T12:09:48;16.05;;;9.77;;
37905;SDS011;23739;51.448;6.674;2023-12-14T12:12:26;18.48;;;10.95;;
37905;SDS011;23739;51.448;6.674;2023-12-14T12:15:14;17.58;;;9.70;;
37905;SDS011;23739;51.448;6.674;2023-12-14T12:17:42;17.00;;;10.35;;
37905;SDS011;23739;51.448;6.674;2023-12-14T12:20:25;17.70;;;11.25;;
37905;SDS011;23739;51.448;6.674;2023-12-14T12:22:55;18.67;;;10.73;;
37905;SDS011;23739;51.448;6.674;2023-12-14T12:25:33;16.67;;;10.02;;
37905;SDS011;23739;51.448;6.674;2023-12-14T12:28:00;17.02;;;10.20;;
37905;SDS011;23739;51.448;6.674;2023-12-14T12:30:44;14.88;;;9.18;;
37905;SDS011;23739;51.448;6.674;2023-12-14T12:33:10;14.32;;;9.25;;
37905;SDS011;23739;51.448;6.674;2023-12-14T12:35:43;13.18;;;8.82;;
37905;SDS011;23739;51.448;6.674;2023-12-14T12:38:09;12.13;;;8.10;;
37905;SDS011;23739;51.448;6.674;2023-12-14T12:40:39;13.48;;;8.25;;
37905;SDS011;23739;51.448;6.674;2023-12-14T12:43:14;14.15;;;8.45;;
37905;SDS011;23739;51.448;6.674;2023-12-14T12:45:43;15.10;;;8.10;;
37905;SDS011;23739;51.448;6.674;2023-12-14T12:48:09;10.20;;;7.18;;
37905;SDS011;23739;51.448;6.674;2023-12-14T12:50:35;11.77;;;7.72;;
37905;SDS011;23739;51.448;6.674;2023-12-14T12:53:04;10.57;;;6.85;;
37905;SDS011;23739;51.448;6.674;2023-12-14T12:55:31;11.48;;;6.93;;
37905;SDS011;23739;51.448;6.674;2023-12-14T12:58:02;8.02;;;6.20;;
37905;SDS011;23739;51.448;6.674;2023-12-14T13:00:35;8.80;;;6.65;;
37905;SDS011;23739;51.448;6.674;2023-12-14T13:03:03;10.95;;;7.25;;
37905;SDS011;23739;51.448;6.674;2023-12-14T13:05:33;10.50;;;6.30;;
37905;SDS011;23739;51.448;6.674;2023-12-14T13:08:08;11.02;;;6.72;;
37905;SDS011;23739;51.448;6.674;2023-12-14T13:10:34;9.48;;;6.07;;
37905;SDS011;23739;51.448;6.674;2023-12-14T13:13:02;12.18;;;6.63;;
37905;SDS011;23739;51.448;6.674;2023-12-14T13:15:37;9.63;;;6.53;;
37905;SDS011;23739;51.448;6.674;2023-12-14T13:18:04;10.25;;;7.22;;
37905;SDS011;23739;51.448;6.674;2023-12-14T13:20:36;8.80;;;6.63;;
37905;SDS011;23739;51.448;6.674;2023-12-14T13:23:08;11.40;;;6.28;;
37905;SDS011;23739;51.448;6.674;2023-12-14T13:25:40;10.80;;;6.90;;
37905;SDS011;23739;51.448;6.674;2023-12-14T13:28:10;11.18;;;7.07;;
37905;SDS011;23739;51.448;6.674;2023-12-14T13:30:39;14.88;;;8.30;;
37905;SDS011;23739;51.448;6.674;2023-12-14T13:33:08;11.27;;;7.30;;
37905;SDS011;23739;51.448;6.674;2023-12-14T13:35:50;12.75;;;8.45;;
37905;SDS011;23739;51.448;6.674;2023-12-14T13:38:16;12.07;;;7.68;;
37905;SDS011;23739;51.448;6.674;2023-12-14T13:40:51;9.13;;;7.20;;
37905;SDS011;23739;51.448;6.674;2023-12-14T13:43:20;13.27;;;8.20;;
37905;SDS011;23739;51.448;6.674;2023-12-14T13:45:49;10.93;;;7.80;;
37905;SDS011;23739;51.448;6.674;2023-12-14T13:48:21;13.02;;;8.07;;
37905;SDS011;23739;51.448;6.674;2023-12-14T13:50:54;12.10;;;7.90;;
37905;SDS011;23739;51.448;6.674;2023-12-14T13:53:32;12.05;;;8.48;;
37905;SDS011;23739;51.448;6.674;2023-12-14T13:56:10;14.07;;;8.15;;
37905;SDS011;23739;51.448;6.674;2023-12-14T13:58:39;12.70;;;8.52;;
37905;SDS011;23739;51.448;6.674;2023-12-14T14:01:24;14.77;;;8.50;;
37905;SDS011;23739;51.448;6.674;2023-12-14T14:03:50;11.65;;;7.95;;
37905;SDS011;23739;51.448;6.674;2023-12-14T14:06:19;11.65;;;7.68;;
37905;SDS011;23739;51.448;6.674;2023-12-14T14:09:00;11.10;;;7.80;;
37905;SDS011;23739;51.448;6.674;2023-12-14T14:11:35;11.00;;;7.28;;
37905;SDS011;23739;51.448;6.674;2023-12-14T14:14:16;8.73;;;6.47;;
37905;SDS011;23739;51.448;6.674;2023-12-14T14:16:51;10.93;;;8.20;;
37905;SDS011;23739;51.448;6.674;2023-12-14T14:19:39;11.95;;;8.25;;
37905;SDS011;23739;51.448;6.674;2023-12-14T14:22:08;11.18;;;7.70;;
37905;SDS011;23739;51.448;6.674;2023-12-14T14:27:22;10.43;;;7.53;;
37905;SDS011;23739;51.448;6.674;2023-12-14T14:29:51;11.80;;;7.50;;
37905;SDS011;23739;51.448;6.674;2023-12-14T14:32:20;12.50;;;8.02;;
37905;SDS011;23739;51.448;6.674;2023-12-14T14:34:46;12.10;;;8.13;;
37905;SDS011;23739;51.448;6.674;2023-12-14T14:37:24;10.98;;;8.25;;
37905;SDS011;23739;51.448;6.674;2023-12-14T14:39:53;11.13;;;7.35;;
37905;SDS011;23739;51.448;6.674;2023-12-14T14:42:22;11.45;;;7.78;;
37905;SDS011;23739;51.448;6.674;2023-12-14T14:44:48;11.57;;;7.93;;
37905;SDS011;23739;51.448;6.674;2023-12-14T14:47:20;13.23;;;8.00;;
37905;SDS011;23739;51.448;6.674;2023-12-14T14:49:47;15.02;;;9.05;;
37905;SDS011;23739;51.448;6.674;2023-12-14T14:52:25;14.57;;;9.15;;
37905;SDS011;23739;51.448;6.674;2023-12-14T14:54:56;11.98;;;8.13;;
37905;SDS011;23739;51.448;6.674;2023-12-14T14:57:29;16.45;;;9.70;;
37905;SDS011;23739;51.448;6.674;2023-12-14T14:59:58;13.38;;;9.18;;
37905;SDS011;23739;51.448;6.674;2023-12-14T15:02:28;14.48;;;8.95;;
37905;SDS011;23739;51.448;6.674;2023-12-14T15:04:54;13.65;;;9.55;;
37905;SDS011;23739;51.448;6.674;2023-12-14T15:07:20;16.17;;;10.48;;
37905;SDS011;23739;51.448;6.674;2023-12-14T15:09:53;16.00;;;9.55;;
37905;SDS011;23739;51.448;6.674;2023-12-14T15:14:52;13.57;;;9.00;;
37905;SDS011;23739;51.448;6.674;2023-12-14T15:17:19;16.73;;;9.27;;
37905;SDS011;23739;51.448;6.674;2023-12-14T15:19:57;13.13;;;8.88;;
37905;SDS011;23739;51.448;6.674;2023-12-14T15:22:29;14.90;;;8.65;;
37905;SDS011;23739;51.448;6.674;2023-12-14T15:24:58;14.85;;;9.68;;
37905;SDS011;23739;51.448;6.674;2023-12-14T15:27:29;13.85;;;8.77;;
37905;SDS011;23739;51.448;6.674;2023-12-14T15:30:33;12.50;;;8.98;;
37905;SDS011;23739;51.448;6.674;2023-12-14T15:33:08;13.48;;;8.93;;
37905;SDS011;23739;51.448;6.674;2023-12-14T15:35:34;13.48;;;8.93;;
37905;SDS011;23739;51.448;6.674;2023-12-14T15:38:00;13.60;;;9.53;;
37905;SDS011;23739;51.448;6.674;2023-12-14T15:40:33;14.85;;;8.73;;
37905;SDS011;23739;51.448;6.674;2023-12-14T15:43:06;13.32;;;9.00;;